createdAt,value
2023-02-19T00:00:32.239Z,1.33
2023-02-19T00:03:02.552Z,1.50
2023-02-19T00:05:32.158Z,1.73
2023-02-19T00:08:01.764Z,1.23
2023-02-19T00:10:31.349Z,1.40
2023-02-19T00:13:03.546Z,1.02
2023-02-19T00:15:35.061Z,1.10
2023-02-19T00:18:04.715Z,1.10
2023-02-19T00:20:34.336Z,0.95
2023-02-19T00:23:03.976Z,1.30
2023-02-19T00:25:33.574Z,1.35
2023-02-19T00:28:05.820Z,1.00
2023-02-19T00:30:35.928Z,1.20
2023-02-19T00:33:06.221Z,1.05
2023-02-19T00:35:36.725Z,1.02
2023-02-19T00:38:06.566Z,0.68
2023-02-19T00:40:36.265Z,0.90
2023-02-19T00:43:09.648Z,1.80
2023-02-19T00:45:39.293Z,2.40
2023-02-19T00:48:08.874Z,3.65
2023-02-19T00:50:38.551Z,4.75
2023-02-19T00:53:08.126Z,3.60
2023-02-19T00:55:37.719Z,2.38
2023-02-19T00:58:10.139Z,1.70
2023-02-19T01:00:39.777Z,2.13
2023-02-19T01:03:09.430Z,2.83
2023-02-19T01:05:39.256Z,2.58
2023-02-19T01:08:08.828Z,3.10
2023-02-19T01:10:38.452Z,3.08
2023-02-19T01:13:10.719Z,2.97
2023-02-19T01:15:40.701Z,2.75
2023-02-19T01:18:10.299Z,3.78
2023-02-19T01:20:41.080Z,4.32
2023-02-19T01:23:10.850Z,4.60
2023-02-19T01:25:40.988Z,3.55
2023-02-19T01:28:13.996Z,2.70
2023-02-19T01:30:43.631Z,2.47
2023-02-19T01:33:13.276Z,2.92
2023-02-19T01:35:42.948Z,2.90
2023-02-19T01:38:13.003Z,2.20
2023-02-19T01:40:42.704Z,3.72
2023-02-19T01:43:17.894Z,2.63
2023-02-19T01:45:48.075Z,3.05
2023-02-19T01:48:19.278Z,3.60
2023-02-19T01:50:50.332Z,2.92
2023-02-19T01:53:22.799Z,3.20
2023-02-19T01:55:54.019Z,2.53
2023-02-19T01:58:26.886Z,2.08
2023-02-19T02:00:56.536Z,2.83
2023-02-19T02:03:26.500Z,1.38
2023-02-19T02:05:58.957Z,2.33
2023-02-19T02:08:41.708Z,2.30
2023-02-19T02:11:11.609Z,2.60
2023-02-19T02:13:44.009Z,2.97
2023-02-19T02:16:20.035Z,3.22
2023-02-19T02:18:55.661Z,2.30
2023-02-19T02:21:44.617Z,2.05
2023-02-19T02:24:21.111Z,3.03
2023-02-19T02:26:59.763Z,2.30
2023-02-19T02:29:40.765Z,3.00
2023-02-19T02:32:14.981Z,2.55
2023-02-19T02:34:48.810Z,2.35
2023-02-19T02:37:19.397Z,2.53
2023-02-19T02:39:49.830Z,1.77
2023-02-19T02:42:31.741Z,2.58
2023-02-19T02:45:37.735Z,2.63
2023-02-19T02:48:25.642Z,2.72
2023-02-19T02:50:58.170Z,2.25
2023-02-19T02:53:42.796Z,2.30
2023-02-19T02:56:13.362Z,1.80
2023-02-19T02:58:43.438Z,2.55
2023-02-19T03:01:27.252Z,2.35
2023-02-19T03:04:03.542Z,2.03
2023-02-19T03:06:35.835Z,2.05
2023-02-19T03:09:10.266Z,1.88
2023-02-19T03:11:54.251Z,1.90
2023-02-19T03:14:38.050Z,1.63
2023-02-19T03:17:24.412Z,1.25
2023-02-19T03:19:58.947Z,1.17
2023-02-19T03:22:30.929Z,1.73
2023-02-19T03:25:17.674Z,1.40
2023-02-19T03:27:49.095Z,1.20
2023-02-19T03:30:20.600Z,1.30
2023-02-19T03:32:52.293Z,1.30
2023-02-19T03:35:26.027Z,1.38
2023-02-19T03:38:00.627Z,0.85
2023-02-19T03:40:31.935Z,1.90
2023-02-19T03:43:06.561Z,1.67
2023-02-19T03:45:40.752Z,1.35
2023-02-19T03:48:21.113Z,1.70
2023-02-19T03:50:58.394Z,1.42
2023-02-19T03:53:31.484Z,2.55
2023-02-19T03:56:10.488Z,2.35
2023-02-19T03:58:45.825Z,2.42
2023-02-19T04:01:18.530Z,1.92
2023-02-19T04:03:49.825Z,2.22
2023-02-19T04:06:25.265Z,2.28
2023-02-19T04:08:56.317Z,2.28
2023-02-19T04:11:27.314Z,2.45
2023-02-19T04:14:05.142Z,2.50
2023-02-19T04:16:36.336Z,2.85
2023-02-19T04:19:08.490Z,2.55
2023-02-19T04:21:41.176Z,2.75
2023-02-19T04:24:13.718Z,2.90
2023-02-19T04:26:44.247Z,2.88
2023-02-19T04:29:13.995Z,2.58
2023-02-19T04:31:43.593Z,3.03
2023-02-19T04:34:13.195Z,2.22
2023-02-19T04:36:45.399Z,2.53
2023-02-19T04:39:15.069Z,4.00
2023-02-19T04:41:44.634Z,2.83
2023-02-19T04:44:14.240Z,2.90
2023-02-19T04:46:43.884Z,2.95
2023-02-19T04:49:13.562Z,4.05
2023-02-19T04:51:45.804Z,3.38
2023-02-19T04:54:15.434Z,2.97
2023-02-19T04:56:45.013Z,2.85
2023-02-19T04:59:14.609Z,2.45
2023-02-19T05:01:44.291Z,3.35
2023-02-19T05:04:14.004Z,1.95
2023-02-19T05:06:46.264Z,3.50
2023-02-19T05:09:15.877Z,2.47
2023-02-19T05:11:45.521Z,2.78
2023-02-19T05:14:15.410Z,2.35
2023-02-19T05:16:45.008Z,1.73
2023-02-19T05:19:14.857Z,2.25
2023-02-19T05:21:47.164Z,2.42
2023-02-19T05:24:16.845Z,2.08
2023-02-19T05:26:48.329Z,1.92
2023-02-19T05:29:18.004Z,1.85
2023-02-19T05:31:48.919Z,1.52
2023-02-19T05:34:18.620Z,1.55
2023-02-19T05:36:50.814Z,1.73
2023-02-19T05:39:20.462Z,1.60
2023-02-19T05:41:50.085Z,1.13
2023-02-19T05:44:19.671Z,1.30
2023-02-19T05:46:49.275Z,1.10
2023-02-19T05:49:18.973Z,1.25
2023-02-19T05:51:52.912Z,1.45
2023-02-19T05:54:22.522Z,1.88
2023-02-19T05:56:52.306Z,1.98
2023-02-19T05:59:24.026Z,2.08
2023-02-19T06:01:54.406Z,1.40
2023-02-19T06:04:24.395Z,1.95
2023-02-19T06:06:56.611Z,1.85
2023-02-19T06:09:26.226Z,2.00
2023-02-19T06:11:55.813Z,1.65
2023-02-19T06:14:25.427Z,1.77
2023-02-19T06:16:55.103Z,1.70
2023-02-19T06:19:24.721Z,1.13
2023-02-19T06:21:56.904Z,2.33
2023-02-19T06:24:26.509Z,2.20
2023-02-19T06:26:56.088Z,1.48
2023-02-19T06:29:25.890Z,2.40
2023-02-19T06:31:55.611Z,1.92
2023-02-19T06:34:25.291Z,2.50
2023-02-19T06:36:57.975Z,2.38
2023-02-19T06:39:27.733Z,1.05
2023-02-19T06:41:58.428Z,2.22
2023-02-19T06:44:28.086Z,2.03
2023-02-19T06:46:57.973Z,1.92
2023-02-19T06:49:27.568Z,1.20
2023-02-19T06:52:00.682Z,1.58
2023-02-19T06:54:30.418Z,1.63
2023-02-19T06:57:00.039Z,1.30
2023-02-19T06:59:29.795Z,1.33
2023-02-19T07:01:59.377Z,1.40
2023-02-19T07:04:29.288Z,1.63
2023-02-19T07:07:01.681Z,1.20
2023-02-19T07:09:31.317Z,1.13
2023-02-19T07:12:00.932Z,1.70
2023-02-19T07:14:31.133Z,1.08
2023-02-19T07:17:00.716Z,1.15
2023-02-19T07:19:30.415Z,1.48
2023-02-19T07:22:02.638Z,1.90
2023-02-19T07:24:32.215Z,1.60
2023-02-19T07:27:01.780Z,1.35
2023-02-19T07:29:31.396Z,1.40
2023-02-19T07:32:01.041Z,1.33
2023-02-19T07:34:30.799Z,1.60
2023-02-19T07:37:03.013Z,1.80
2023-02-19T07:39:32.722Z,1.50
2023-02-19T07:42:02.319Z,1.45
2023-02-19T07:44:34.955Z,1.35
2023-02-19T07:47:04.577Z,1.95
2023-02-19T07:49:34.205Z,1.80
2023-02-19T07:52:06.509Z,1.60
2023-02-19T07:54:36.141Z,1.60
2023-02-19T07:57:05.775Z,1.00
2023-02-19T07:59:35.433Z,1.23
2023-02-19T08:02:17.407Z,1.23
2023-02-19T08:04:46.994Z,1.30
2023-02-19T08:07:19.229Z,1.25
2023-02-19T08:10:08.957Z,1.33
2023-02-19T08:12:53.561Z,0.95
2023-02-19T08:15:23.200Z,0.80
2023-02-19T08:17:52.798Z,0.82
2023-02-19T08:20:22.614Z,1.00
2023-02-19T08:22:54.857Z,0.65
2023-02-19T08:25:24.682Z,1.63
2023-02-19T08:27:54.307Z,1.20
2023-02-19T08:30:24.099Z,0.85
2023-02-19T08:32:53.792Z,1.00
2023-02-19T08:35:23.483Z,1.20
2023-02-19T08:37:57.779Z,1.00
2023-02-19T08:40:27.780Z,0.90
2023-02-19T08:42:57.360Z,1.13
2023-02-19T08:45:26.953Z,1.10
2023-02-19T08:47:56.554Z,0.82
2023-02-19T08:50:26.160Z,1.23
2023-02-19T08:52:58.364Z,0.90
2023-02-19T08:55:27.968Z,1.25
2023-02-19T08:57:57.878Z,1.23
2023-02-19T09:00:27.898Z,1.40
2023-02-19T09:02:57.499Z,1.35
2023-02-19T09:05:27.121Z,1.60
2023-02-19T09:07:59.844Z,2.20
2023-02-19T09:10:29.507Z,1.60
2023-02-19T09:12:59.158Z,1.67
2023-02-19T09:15:29.729Z,2.00
2023-02-19T09:17:59.573Z,2.22
2023-02-19T09:20:29.218Z,1.88
2023-02-19T09:23:04.580Z,2.05
2023-02-19T09:25:34.160Z,2.28
2023-02-19T09:28:03.777Z,2.05
2023-02-19T09:30:33.444Z,2.38
2023-02-19T09:33:03.056Z,2.10
2023-02-19T09:35:32.711Z,2.17
2023-02-19T09:38:05.053Z,2.08
2023-02-19T09:40:34.767Z,2.08
2023-02-19T09:43:05.741Z,1.30
2023-02-19T09:45:35.958Z,0.50
2023-02-19T09:48:06.367Z,0.80
2023-02-19T09:50:37.514Z,0.98
2023-02-19T09:53:15.391Z,1.30
2023-02-19T09:55:46.497Z,1.48
2023-02-19T09:58:25.882Z,1.10
2023-02-19T10:03:28.674Z,1.70
2023-02-19T10:05:59.051Z,2.47
2023-02-19T10:08:34.157Z,1.88
2023-02-19T10:11:04.297Z,1.73
2023-02-19T10:13:35.999Z,1.55
2023-02-19T10:16:07.051Z,1.42
2023-02-19T10:18:39.137Z,1.67
2023-02-19T10:21:09.471Z,1.40
2023-02-19T10:23:42.480Z,1.55
2023-02-19T10:26:12.584Z,1.75
2023-02-19T10:28:42.328Z,2.20
2023-02-19T10:31:20.131Z,2.03
2023-02-19T10:33:53.620Z,2.55
2023-02-19T10:36:29.307Z,2.40
2023-02-19T10:39:04.753Z,1.95
2023-02-19T10:41:34.393Z,1.98
2023-02-19T10:44:07.525Z,1.92
2023-02-19T10:46:38.627Z,2.13
2023-02-19T10:49:09.253Z,1.40
2023-02-19T10:51:40.158Z,1.27
2023-02-19T10:54:19.177Z,0.70
2023-02-19T10:56:48.912Z,1.17
2023-02-19T10:59:24.753Z,1.63
2023-02-19T11:01:58.681Z,1.65
2023-02-19T11:04:30.153Z,1.55
2023-02-19T11:07:00.259Z,2.38
2023-02-19T11:09:35.590Z,1.73
2023-02-19T11:12:06.431Z,1.55
2023-02-19T11:14:37.548Z,2.20
2023-02-19T11:17:07.701Z,1.75
2023-02-19T11:19:39.512Z,2.00
2023-02-19T11:22:21.748Z,1.13
2023-02-19T11:24:57.849Z,1.25
2023-02-19T11:27:28.884Z,0.80
2023-02-19T11:29:58.779Z,0.95
2023-02-19T11:32:30.172Z,1.60
2023-02-19T11:35:14.712Z,1.13
2023-02-19T11:37:55.966Z,1.45
2023-02-19T11:40:32.837Z,1.60
2023-02-19T11:43:06.209Z,1.33
2023-02-19T11:45:40.076Z,1.80
2023-02-19T11:48:16.798Z,1.75
2023-02-19T11:50:53.336Z,1.70
2023-02-19T11:53:27.860Z,1.73
2023-02-19T11:56:12.382Z,1.95
2023-02-19T11:58:58.013Z,1.95
2023-02-19T12:01:38.237Z,1.70
2023-02-19T12:06:41.139Z,1.10
2023-02-19T12:09:18.006Z,1.70
2023-02-19T12:11:53.662Z,1.90
2023-02-19T12:14:41.168Z,1.50
2023-02-19T12:17:17.602Z,0.85
2023-02-19T12:19:59.137Z,1.20
2023-02-19T12:22:32.980Z,1.08
2023-02-19T12:25:23.873Z,1.00
2023-02-19T12:28:03.555Z,0.90
2023-02-19T12:30:42.033Z,1.08
2023-02-19T12:33:21.883Z,0.90
2023-02-19T12:35:57.034Z,1.10
2023-02-19T12:38:33.497Z,1.13
2023-02-19T12:41:20.721Z,0.75
2023-02-19T12:43:54.896Z,1.00
2023-02-19T12:46:28.660Z,1.65
2023-02-19T12:49:03.557Z,1.20
2023-02-19T12:51:35.385Z,0.95
2023-02-19T12:54:07.687Z,1.38
2023-02-19T12:56:39.117Z,1.30
2023-02-19T12:59:13.427Z,0.98
2023-02-19T13:01:48.450Z,1.45
2023-02-19T13:04:27.423Z,1.48
2023-02-19T13:06:58.493Z,1.45
2023-02-19T13:09:31.065Z,1.52
2023-02-19T13:12:02.408Z,1.10
2023-02-19T13:14:33.799Z,1.58
2023-02-19T13:17:08.813Z,1.90
2023-02-19T13:19:41.347Z,1.50
2023-02-19T13:22:29.121Z,2.10
2023-02-19T13:24:59.327Z,2.13
2023-02-19T13:27:41.596Z,2.00
2023-02-19T13:30:20.648Z,2.35
2023-02-19T13:33:04.155Z,1.63
2023-02-19T13:35:55.011Z,1.90
2023-02-19T13:38:25.130Z,1.40
2023-02-19T13:40:59.217Z,1.40
2023-02-19T13:43:30.644Z,0.88
2023-02-19T13:46:01.492Z,0.93
2023-02-19T13:48:32.166Z,1.40
2023-02-19T13:51:21.797Z,1.50
2023-02-19T13:54:00.126Z,1.52
2023-02-19T13:56:42.602Z,1.73
2023-02-19T13:59:26.243Z,1.35
2023-02-19T14:02:13.391Z,1.60
2023-02-19T14:04:51.861Z,1.00
2023-02-19T14:07:48.243Z,1.40
2023-02-19T14:10:40.452Z,2.35
2023-02-19T14:13:10.742Z,2.00
2023-02-19T14:15:44.204Z,1.48
2023-02-19T14:18:28.990Z,1.90
2023-02-19T14:21:09.683Z,1.30
2023-02-19T14:23:40.795Z,1.40
2023-02-19T14:26:14.163Z,1.30
2023-02-19T14:28:46.185Z,0.98
2023-02-19T14:31:22.044Z,1.77
2023-02-19T14:33:52.420Z,1.20
2023-02-19T14:36:36.968Z,1.40
2023-02-19T14:39:08.352Z,1.42
2023-02-19T14:41:41.692Z,1.38
2023-02-19T14:44:17.241Z,1.00
2023-02-19T14:46:53.153Z,1.30
2023-02-19T14:49:26.317Z,1.88
2023-02-19T14:51:57.128Z,0.70
2023-02-19T14:54:38.599Z,0.80
2023-02-19T14:57:15.062Z,0.50
2023-02-19T14:59:54.285Z,0.50
2023-02-19T15:02:26.169Z,1.02
2023-02-19T15:04:56.229Z,0.90
2023-02-19T15:07:27.752Z,0.93
2023-02-19T15:10:03.653Z,1.08
2023-02-19T15:12:39.071Z,0.90
2023-02-19T15:15:09.515Z,1.77
2023-02-19T15:17:42.462Z,2.08
2023-02-19T15:20:14.114Z,1.05
2023-02-19T15:22:44.449Z,1.50
2023-02-19T15:25:18.726Z,1.00
2023-02-19T15:27:51.203Z,1.42
2023-02-19T15:30:25.606Z,1.08
2023-02-19T15:32:56.032Z,1.58
2023-02-19T15:35:26.323Z,1.05
2023-02-19T15:37:56.342Z,2.47
2023-02-19T15:40:29.573Z,1.23
2023-02-19T15:43:02.048Z,1.65
2023-02-19T15:45:33.792Z,1.60
2023-02-19T15:48:05.526Z,2.28
2023-02-19T15:50:36.838Z,2.28
2023-02-19T15:53:10.135Z,1.70
2023-02-19T15:55:41.784Z,1.75
2023-02-19T15:58:18.197Z,2.55
2023-02-19T16:00:49.687Z,1.77
2023-02-19T16:03:21.048Z,2.42
2023-02-19T16:06:01.069Z,3.45
2023-02-19T16:08:34.975Z,2.95
2023-02-19T16:11:05.505Z,4.60
2023-02-19T16:13:37.846Z,2.33
2023-02-19T16:16:16.201Z,2.92
2023-02-19T16:18:49.590Z,3.50
2023-02-19T16:21:20.780Z,2.70
2023-02-19T16:23:51.357Z,1.80
2023-02-19T16:26:21.193Z,2.53
2023-02-19T16:28:56.185Z,4.28
2023-02-19T16:31:26.496Z,2.63
2023-02-19T16:33:58.417Z,2.45
2023-02-19T16:36:37.358Z,3.15
2023-02-19T16:39:17.485Z,2.38
2023-02-19T16:42:11.854Z,2.00
2023-02-19T16:44:44.229Z,3.78
2023-02-19T16:47:18.731Z,2.10
2023-02-19T16:49:48.449Z,3.08
2023-02-19T16:52:18.733Z,3.97
2023-02-19T16:54:50.136Z,6.35
2023-02-19T16:57:20.671Z,3.70
2023-02-19T16:59:53.011Z,4.40
2023-02-19T17:02:25.292Z,4.65
2023-02-19T17:04:55.978Z,4.65
2023-02-19T17:07:27.568Z,4.55
2023-02-19T17:09:57.224Z,4.00
2023-02-19T17:12:27.349Z,3.10
2023-02-19T17:14:59.739Z,3.08
2023-02-19T17:17:29.733Z,2.42
2023-02-19T17:19:59.321Z,3.17
2023-02-19T17:22:29.248Z,3.10
2023-02-19T17:24:58.837Z,3.30
2023-02-19T17:27:30.667Z,2.90
2023-02-19T17:30:04.959Z,5.05
2023-02-19T17:32:34.690Z,3.22
2023-02-19T17:35:04.389Z,5.55
2023-02-19T17:37:34.067Z,7.82
2023-02-19T17:40:03.795Z,6.18
2023-02-19T17:42:35.707Z,5.57
2023-02-19T17:45:08.297Z,4.07
2023-02-19T17:47:38.026Z,3.13
2023-02-19T17:50:08.121Z,3.10
2023-02-19T17:52:37.891Z,3.63
2023-02-19T17:55:07.932Z,3.60
2023-02-19T17:57:37.870Z,3.35
2023-02-19T18:00:10.946Z,3.30
2023-02-19T18:02:43.672Z,2.60
2023-02-19T18:05:13.969Z,3.28
2023-02-19T18:07:43.798Z,2.28
2023-02-19T18:10:13.959Z,3.08
2023-02-19T18:12:43.745Z,1.42
2023-02-19T18:15:18.470Z,1.85
2023-02-19T18:17:48.413Z,1.70
2023-02-19T18:20:18.878Z,2.92
2023-02-19T18:22:48.480Z,2.70
2023-02-19T18:25:18.739Z,3.10
2023-02-19T18:27:48.527Z,3.05
2023-02-19T18:30:22.989Z,3.42
2023-02-19T18:32:53.932Z,2.65
2023-02-19T18:35:24.003Z,2.75
2023-02-19T18:37:54.818Z,2.78
2023-02-19T18:40:26.014Z,3.05
2023-02-19T18:42:55.660Z,2.80
2023-02-19T18:45:29.746Z,1.10
2023-02-19T18:47:59.611Z,2.42
2023-02-19T18:50:29.222Z,2.25
2023-02-19T18:53:00.566Z,2.70
2023-02-19T18:55:30.230Z,2.40
2023-02-19T18:57:59.805Z,1.80
2023-02-19T19:00:31.994Z,2.30
2023-02-19T19:03:02.282Z,1.65
2023-02-19T19:05:32.161Z,1.67
2023-02-19T19:08:02.045Z,1.70
2023-02-19T19:10:32.019Z,2.78
2023-02-19T19:13:01.674Z,1.73
2023-02-19T19:15:34.390Z,1.42
2023-02-19T19:18:04.166Z,2.38
2023-02-19T19:20:33.879Z,4.15
2023-02-19T19:23:05.008Z,2.65
2023-02-19T19:25:34.933Z,1.58
2023-02-19T19:28:04.816Z,2.00
2023-02-19T19:30:37.368Z,1.85
2023-02-19T19:33:07.030Z,2.70
2023-02-19T19:35:36.628Z,2.45
2023-02-19T19:38:06.384Z,2.80
2023-02-19T19:40:36.084Z,2.63
2023-02-19T19:43:06.025Z,1.98
2023-02-19T19:45:38.356Z,2.78
2023-02-19T19:48:08.923Z,2.25
2023-02-19T19:50:38.624Z,2.20
2023-02-19T19:53:08.246Z,2.15
2023-02-19T19:55:38.121Z,3.00
2023-02-19T19:58:08.196Z,1.80
2023-02-19T20:00:40.660Z,4.82
2023-02-19T20:03:11.776Z,8.27
2023-02-19T20:05:41.431Z,8.65
2023-02-19T20:08:11.252Z,1.92
2023-02-19T20:10:40.936Z,2.13
2023-02-19T20:13:10.738Z,2.25
2023-02-19T20:15:43.180Z,1.95
2023-02-19T20:18:13.059Z,1.65
2023-02-19T20:20:42.866Z,1.92
2023-02-19T20:23:12.473Z,2.33
2023-02-19T20:25:42.249Z,2.08
2023-02-19T20:28:11.899Z,1.27
2023-02-19T20:30:45.573Z,2.22
2023-02-19T20:33:15.310Z,0.90
2023-02-19T20:35:44.933Z,2.35
2023-02-19T20:38:17.138Z,1.90
2023-02-19T20:40:46.872Z,1.30
2023-02-19T20:43:16.599Z,1.48
2023-02-19T20:45:48.860Z,1.27
2023-02-19T20:48:18.803Z,1.33
2023-02-19T20:50:48.422Z,1.27
2023-02-19T20:53:18.021Z,2.25
2023-02-19T20:55:47.646Z,2.53
2023-02-19T20:58:17.302Z,2.00
2023-02-19T21:00:49.605Z,1.50
2023-02-19T21:03:19.214Z,0.75
2023-02-19T21:05:48.915Z,1.83
2023-02-19T21:08:18.584Z,1.45
2023-02-19T21:10:48.512Z,1.63
2023-02-19T21:13:18.174Z,1.23
2023-02-19T21:15:50.645Z,1.20
2023-02-19T21:18:20.345Z,2.45
2023-02-19T21:20:49.946Z,0.93
2023-02-19T21:23:19.565Z,1.40
2023-02-19T21:25:49.665Z,2.25
2023-02-19T21:28:19.852Z,2.08
2023-02-19T21:30:52.086Z,2.25
2023-02-19T21:33:21.687Z,1.20
2023-02-19T21:35:51.306Z,1.25
2023-02-19T21:38:20.944Z,1.80
2023-02-19T21:40:50.741Z,2.08
2023-02-19T21:43:20.357Z,1.83
2023-02-19T21:45:52.660Z,0.88
2023-02-19T21:48:22.262Z,1.17
2023-02-19T21:50:52.266Z,0.90
2023-02-19T21:53:22.157Z,0.90
2023-02-19T21:55:58.135Z,2.20
2023-02-19T21:58:28.292Z,1.50
2023-02-19T22:01:00.952Z,1.00
2023-02-19T22:03:30.568Z,0.98
2023-02-19T22:06:03.951Z,1.08
2023-02-19T22:08:33.575Z,1.30
2023-02-19T22:11:03.148Z,0.85
2023-02-19T22:13:32.737Z,1.25
2023-02-19T22:16:05.011Z,1.48
2023-02-19T22:18:34.699Z,0.93
2023-02-19T22:21:05.547Z,1.60
2023-02-19T22:23:35.483Z,2.10
2023-02-19T22:26:05.073Z,1.08
2023-02-19T22:28:34.656Z,1.35
2023-02-19T22:31:06.954Z,1.70
2023-02-19T22:33:36.564Z,1.00
2023-02-19T22:36:06.399Z,1.20
2023-02-19T22:38:35.979Z,0.70
2023-02-19T22:41:06.873Z,1.52
2023-02-19T22:43:36.458Z,1.15
2023-02-19T22:46:12.025Z,2.20
2023-02-19T22:48:41.910Z,1.52
2023-02-19T22:51:15.463Z,1.30
2023-02-19T22:53:48.444Z,1.50
2023-02-19T22:56:19.306Z,2.05
2023-02-19T22:58:51.577Z,1.30
2023-02-19T23:01:24.028Z,1.80
2023-02-19T23:03:55.005Z,1.23
2023-02-19T23:06:25.570Z,1.35
2023-02-19T23:08:55.293Z,1.33
2023-02-19T23:11:26.078Z,1.08
2023-02-19T23:13:55.690Z,1.85
2023-02-19T23:16:27.924Z,1.48
2023-02-19T23:18:57.605Z,1.50
2023-02-19T23:21:27.153Z,1.35
2023-02-19T23:23:56.787Z,1.35
2023-02-19T23:26:26.675Z,1.83
2023-02-19T23:28:56.348Z,1.73
2023-02-19T23:31:28.684Z,2.35
2023-02-19T23:33:58.354Z,1.98
2023-02-19T23:36:27.933Z,2.30
2023-02-19T23:38:57.560Z,2.33
2023-02-19T23:41:27.139Z,3.22
2023-02-19T23:43:57.061Z,3.30
2023-02-19T23:46:29.340Z,2.72
2023-02-19T23:48:58.962Z,3.60
2023-02-19T23:51:28.584Z,2.05
2023-02-19T23:53:58.173Z,2.70
2023-02-19T23:56:28.230Z,2.97
2023-02-19T23:58:57.851Z,2.72
